sensor_id;sensor_type;location;lat;lon;timestamp;temperature;humidity
19132;DHT22;9698;51.976;7.570;2023-09-19T00:01:40;18.30;99.90
19132;DHT22;9698;51.976;7.570;2023-09-19T00:04:09;18.30;99.90
19132;DHT22;9698;51.976;7.570;2023-09-19T00:06:37;18.20;99.90
19132;DHT22;9698;51.976;7.570;2023-09-19T00:09:05;18.20;99.90
19132;DHT22;9698;51.976;7.570;2023-09-19T00:11:38;18.20;99.90
19132;DHT22;9698;51.976;7.570;2023-09-19T00:14:06;18.20;99.90
19132;DHT22;9698;51.976;7.570;2023-09-19T00:16:35;18.20;99.90
19132;DHT22;9698;51.976;7.570;2023-09-19T00:19:03;18.20;99.90
19132;DHT22;9698;51.976;7.570;2023-09-19T00:21:36;18.20;99.90
19132;DHT22;9698;51.976;7.570;2023-09-19T00:24:06;18.20;99.90
19132;DHT22;9698;51.976;7.570;2023-09-19T00:26:34;18.20;99.90
19132;DHT22;9698;51.976;7.570;2023-09-19T00:29:02;18.20;99.90
19132;DHT22;9698;51.976;7.570;2023-09-19T00:31:31;18.20;99.90
19132;DHT22;9698;51.976;7.570;2023-09-19T00:33:59;18.20;99.90
19132;DHT22;9698;51.976;7.570;2023-09-19T00:36:37;18.10;99.90
19132;DHT22;9698;51.976;7.570;2023-09-19T00:39:06;18.10;99.90
19132;DHT22;9698;51.976;7.570;2023-09-19T00:41:35;18.00;99.90
19132;DHT22;9698;51.976;7.570;2023-09-19T00:44:04;18.10;99.90
19132;DHT22;9698;51.976;7.570;2023-09-19T00:46:32;18.10;99.90
19132;DHT22;9698;51.976;7.570;2023-09-19T00:49:01;18.10;99.90
19132;DHT22;9698;51.976;7.570;2023-09-19T00:51:29;18.10;99.90
19132;DHT22;9698;51.976;7.570;2023-09-19T00:53:57;18.10;99.90
19132;DHT22;9698;51.976;7.570;2023-09-19T00:56:26;18.10;99.90
19132;DHT22;9698;51.976;7.570;2023-09-19T00:58:54;18.00;99.90
19132;DHT22;9698;51.976;7.570;2023-09-19T01:01:22;18.10;99.90
19132;DHT22;9698;51.976;7.570;2023-09-19T01:03:50;18.00;99.90
19132;DHT22;9698;51.976;7.570;2023-09-19T01:06:18;18.00;99.90
19132;DHT22;9698;51.976;7.570;2023-09-19T01:08:46;18.00;99.90
19132;DHT22;9698;51.976;7.570;2023-09-19T01:11:19;18.00;99.90
19132;DHT22;9698;51.976;7.570;2023-09-19T01:14:02;18.00;99.90
19132;DHT22;9698;51.976;7.570;2023-09-19T01:16:40;18.10;99.90
19132;DHT22;9698;51.976;7.570;2023-09-19T01:22:13;18.00;99.90
19132;DHT22;9698;51.976;7.570;2023-09-19T01:25:03;18.00;99.90
19132;DHT22;9698;51.976;7.570;2023-09-19T01:28:05;17.90;99.90
19132;DHT22;9698;51.976;7.570;2023-09-19T01:30:39;17.90;99.90
19132;DHT22;9698;51.976;7.570;2023-09-19T01:33:07;17.90;99.90
19132;DHT22;9698;51.976;7.570;2023-09-19T01:35:39;17.90;99.90
19132;DHT22;9698;51.976;7.570;2023-09-19T01:38:06;17.80;99.90
19132;DHT22;9698;51.976;7.570;2023-09-19T01:40:41;17.90;99.90
19132;DHT22;9698;51.976;7.570;2023-09-19T01:43:15;17.80;99.90
19132;DHT22;9698;51.976;7.570;2023-09-19T01:45:51;17.80;99.90
19132;DHT22;9698;51.976;7.570;2023-09-19T01:48:28;17.80;99.90
19132;DHT22;9698;51.976;7.570;2023-09-19T01:51:02;17.80;99.90
19132;DHT22;9698;51.976;7.570;2023-09-19T01:53:51;17.80;99.90
19132;DHT22;9698;51.976;7.570;2023-09-19T01:56:28;17.80;99.90
19132;DHT22;9698;51.976;7.570;2023-09-19T01:59:04;17.80;99.90
19132;DHT22;9698;51.976;7.570;2023-09-19T02:01:34;17.70;99.90
19132;DHT22;9698;51.976;7.570;2023-09-19T02:04:05;17.80;99.90
19132;DHT22;9698;51.976;7.570;2023-09-19T02:06:33;17.80;99.90
19132;DHT22;9698;51.976;7.570;2023-09-19T02:09:01;17.70;99.90
19132;DHT22;9698;51.976;7.570;2023-09-19T02:11:31;17.70;99.90
19132;DHT22;9698;51.976;7.570;2023-09-19T02:13:59;17.60;99.90
19132;DHT22;9698;51.976;7.570;2023-09-19T02:16:27;17.60;99.90
19132;DHT22;9698;51.976;7.570;2023-09-19T02:18:56;17.60;99.90
19132;DHT22;9698;51.976;7.570;2023-09-19T02:21:24;17.70;99.90
19132;DHT22;9698;51.976;7.570;2023-09-19T02:23:52;17.70;99.90
19132;DHT22;9698;51.976;7.570;2023-09-19T02:26:19;17.60;99.90
19132;DHT22;9698;51.976;7.570;2023-09-19T02:28:48;17.60;99.90
19132;DHT22;9698;51.976;7.570;2023-09-19T02:31:16;17.60;99.90
19132;DHT22;9698;51.976;7.570;2023-09-19T02:33:44;17.60;99.90
19132;DHT22;9698;51.976;7.570;2023-09-19T02:36:13;17.60;99.90
19132;DHT22;9698;51.976;7.570;2023-09-19T02:38:44;17.60;99.90
19132;DHT22;9698;51.976;7.570;2023-09-19T02:41:13;17.50;99.90
19132;DHT22;9698;51.976;7.570;2023-09-19T02:43:41;17.50;99.90
19132;DHT22;9698;51.976;7.570;2023-09-19T02:46:11;17.50;99.90
19132;DHT22;9698;51.976;7.570;2023-09-19T02:48:40;17.50;99.90
19132;DHT22;9698;51.976;7.570;2023-09-19T02:51:09;17.50;99.90
19132;DHT22;9698;51.976;7.570;2023-09-19T02:53:37;17.60;99.90
19132;DHT22;9698;51.976;7.570;2023-09-19T02:56:06;17.30;99.90
19132;DHT22;9698;51.976;7.570;2023-09-19T02:58:35;17.30;99.90
19132;DHT22;9698;51.976;7.570;2023-09-19T03:01:09;17.30;99.90
19132;DHT22;9698;51.976;7.570;2023-09-19T03:03:39;17.30;99.90
19132;DHT22;9698;51.976;7.570;2023-09-19T03:06:08;17.30;99.90
19132;DHT22;9698;51.976;7.570;2023-09-19T03:08:37;17.30;99.90
19132;DHT22;9698;51.976;7.570;2023-09-19T03:11:06;17.30;99.90
19132;DHT22;9698;51.976;7.570;2023-09-19T03:13:40;17.30;99.90
19132;DHT22;9698;51.976;7.570;2023-09-19T03:16:09;17.20;99.90
19132;DHT22;9698;51.976;7.570;2023-09-19T03:18:38;17.20;99.90
19132;DHT22;9698;51.976;7.570;2023-09-19T03:21:05;17.20;99.90
19132;DHT22;9698;51.976;7.570;2023-09-19T03:23:33;17.20;99.90
19132;DHT22;9698;51.976;7.570;2023-09-19T03:26:01;17.20;99.90
19132;DHT22;9698;51.976;7.570;2023-09-19T03:28:34;17.10;99.90
19132;DHT22;9698;51.976;7.570;2023-09-19T03:31:04;17.10;99.90
19132;DHT22;9698;51.976;7.570;2023-09-19T03:33:32;17.10;99.90
19132;DHT22;9698;51.976;7.570;2023-09-19T03:36:02;17.00;99.90
19132;DHT22;9698;51.976;7.570;2023-09-19T03:38:32;17.00;99.90
19132;DHT22;9698;51.976;7.570;2023-09-19T03:41:01;17.00;99.90
19132;DHT22;9698;51.976;7.570;2023-09-19T03:43:29;17.00;99.90
19132;DHT22;9698;51.976;7.570;2023-09-19T03:46:00;17.10;99.90
19132;DHT22;9698;51.976;7.570;2023-09-19T03:48:30;17.00;99.90
19132;DHT22;9698;51.976;7.570;2023-09-19T03:50:58;17.00;99.90
19132;DHT22;9698;51.976;7.570;2023-09-19T03:53:26;16.90;99.90
19132;DHT22;9698;51.976;7.570;2023-09-19T03:55:54;16.90;99.90
19132;DHT22;9698;51.976;7.570;2023-09-19T03:58:22;16.90;99.90
19132;DHT22;9698;51.976;7.570;2023-09-19T04:00:50;16.90;99.90
19132;DHT22;9698;51.976;7.570;2023-09-19T04:03:18;16.90;99.90
19132;DHT22;9698;51.976;7.570;2023-09-19T04:05:48;16.80;99.90
19132;DHT22;9698;51.976;7.570;2023-09-19T04:08:16;16.80;99.90
19132;DHT22;9698;51.976;7.570;2023-09-19T04:10:44;16.80;99.90
19132;DHT22;9698;51.976;7.570;2023-09-19T04:13:12;16.80;99.90
19132;DHT22;9698;51.976;7.570;2023-09-19T04:15:41;16.70;99.90
19132;DHT22;9698;51.976;7.570;2023-09-19T04:18:08;16.70;99.90
19132;DHT22;9698;51.976;7.570;2023-09-19T04:20:36;16.70;99.90
19132;DHT22;9698;51.976;7.570;2023-09-19T04:23:04;16.60;99.90
19132;DHT22;9698;51.976;7.570;2023-09-19T04:25:32;16.60;99.90
19132;DHT22;9698;51.976;7.570;2023-09-19T04:28:01;16.60;99.90
19132;DHT22;9698;51.976;7.570;2023-09-19T04:30:31;16.60;99.90
19132;DHT22;9698;51.976;7.570;2023-09-19T04:32:59;16.70;99.90
19132;DHT22;9698;51.976;7.570;2023-09-19T04:35:29;16.70;99.90
19132;DHT22;9698;51.976;7.570;2023-09-19T04:37:59;16.60;99.90
19132;DHT22;9698;51.976;7.570;2023-09-19T04:40:27;16.70;99.90
19132;DHT22;9698;51.976;7.570;2023-09-19T04:42:57;16.60;99.90
19132;DHT22;9698;51.976;7.570;2023-09-19T04:45:25;16.50;99.90
19132;DHT22;9698;51.976;7.570;2023-09-19T04:47:53;16.50;99.90
19132;DHT22;9698;51.976;7.570;2023-09-19T04:50:21;16.50;99.90
19132;DHT22;9698;51.976;7.570;2023-09-19T04:52:50;16.50;99.90
19132;DHT22;9698;51.976;7.570;2023-09-19T04:55:19;16.50;99.90
19132;DHT22;9698;51.976;7.570;2023-09-19T04:57:47;16.50;99.90
19132;DHT22;9698;51.976;7.570;2023-09-19T05:00:17;16.50;99.90
19132;DHT22;9698;51.976;7.570;2023-09-19T05:02:48;16.60;99.90
19132;DHT22;9698;51.976;7.570;2023-09-19T05:05:17;16.50;99.90
19132;DHT22;9698;51.976;7.570;2023-09-19T05:07:46;16.50;99.90
19132;DHT22;9698;51.976;7.570;2023-09-19T05:10:15;16.50;99.90
19132;DHT22;9698;51.976;7.570;2023-09-19T05:15:33;16.50;99.90
19132;DHT22;9698;51.976;7.570;2023-09-19T05:18:03;16.50;99.90
19132;DHT22;9698;51.976;7.570;2023-09-19T05:20:33;16.40;99.90
19132;DHT22;9698;51.976;7.570;2023-09-19T05:25:52;16.40;99.90
19132;DHT22;9698;51.976;7.570;2023-09-19T05:28:22;16.40;99.90
19132;DHT22;9698;51.976;7.570;2023-09-19T05:30:50;16.40;99.90
19132;DHT22;9698;51.976;7.570;2023-09-19T05:33:18;16.50;99.90
19132;DHT22;9698;51.976;7.570;2023-09-19T05:35:48;16.50;99.90
19132;DHT22;9698;51.976;7.570;2023-09-19T05:38:16;16.40;99.90
19132;DHT22;9698;51.976;7.570;2023-09-19T05:40:46;16.40;99.90
19132;DHT22;9698;51.976;7.570;2023-09-19T05:43:14;16.40;99.90
19132;DHT22;9698;51.976;7.570;2023-09-19T05:45:42;16.20;99.90
19132;DHT22;9698;51.976;7.570;2023-09-19T05:48:13;16.30;99.90
19132;DHT22;9698;51.976;7.570;2023-09-19T05:50:43;16.00;99.90
19132;DHT22;9698;51.976;7.570;2023-09-19T05:53:12;15.90;99.90
19132;DHT22;9698;51.976;7.570;2023-09-19T05:55:42;15.90;99.90
19132;DHT22;9698;51.976;7.570;2023-09-19T05:58:10;15.90;99.90
19132;DHT22;9698;51.976;7.570;2023-09-19T06:00:41;15.90;99.90
19132;DHT22;9698;51.976;7.570;2023-09-19T06:03:10;15.90;99.90
19132;DHT22;9698;51.976;7.570;2023-09-19T06:05:41;16.00;99.90
19132;DHT22;9698;51.976;7.570;2023-09-19T06:08:09;15.90;99.90
19132;DHT22;9698;51.976;7.570;2023-09-19T06:10:37;16.00;99.90
19132;DHT22;9698;51.976;7.570;2023-09-19T06:13:05;15.90;99.90
19132;DHT22;9698;51.976;7.570;2023-09-19T06:15:33;16.00;99.90
19132;DHT22;9698;51.976;7.570;2023-09-19T06:18:04;16.00;99.90
19132;DHT22;9698;51.976;7.570;2023-09-19T06:20:33;16.00;99.90
19132;DHT22;9698;51.976;7.570;2023-09-19T06:23:03;15.90;99.90
19132;DHT22;9698;51.976;7.570;2023-09-19T06:25:32;15.90;99.90
19132;DHT22;9698;51.976;7.570;2023-09-19T06:28:00;15.90;99.90
19132;DHT22;9698;51.976;7.570;2023-09-19T06:30:32;15.70;99.90
19132;DHT22;9698;51.976;7.570;2023-09-19T06:33:01;15.70;99.90
19132;DHT22;9698;51.976;7.570;2023-09-19T06:35:33;15.60;99.90
19132;DHT22;9698;51.976;7.570;2023-09-19T06:38:04;15.50;99.90
19132;DHT22;9698;51.976;7.570;2023-09-19T06:40:34;15.50;99.90
19132;DHT22;9698;51.976;7.570;2023-09-19T06:43:03;15.90;99.90
19132;DHT22;9698;51.976;7.570;2023-09-19T06:45:32;16.30;99.90
19132;DHT22;9698;51.976;7.570;2023-09-19T06:48:00;16.60;99.90
19132;DHT22;9698;51.976;7.570;2023-09-19T06:53:17;16.90;99.90
19132;DHT22;9698;51.976;7.570;2023-09-19T06:55:45;17.20;99.90
19132;DHT22;9698;51.976;7.570;2023-09-19T06:58:15;17.20;99.90
19132;DHT22;9698;51.976;7.570;2023-09-19T07:00:44;17.30;99.90
19132;DHT22;9698;51.976;7.570;2023-09-19T07:03:14;17.50;99.90
19132;DHT22;9698;51.976;7.570;2023-09-19T07:05:43;17.60;99.90
19132;DHT22;9698;51.976;7.570;2023-09-19T07:08:11;17.70;99.90
19132;DHT22;9698;51.976;7.570;2023-09-19T07:10:40;17.90;99.90
19132;DHT22;9698;51.976;7.570;2023-09-19T07:13:08;18.00;99.90
19132;DHT22;9698;51.976;7.570;2023-09-19T07:18:26;18.00;99.90
19132;DHT22;9698;51.976;7.570;2023-09-19T07:20:57;17.90;99.90
19132;DHT22;9698;51.976;7.570;2023-09-19T07:23:28;17.60;99.90
19132;DHT22;9698;51.976;7.570;2023-09-19T07:25:58;17.30;99.90
19132;DHT22;9698;51.976;7.570;2023-09-19T07:28:27;17.20;99.90
19132;DHT22;9698;51.976;7.570;2023-09-19T07:30:55;17.20;99.90
19132;DHT22;9698;51.976;7.570;2023-09-19T07:33:23;17.10;99.90
19132;DHT22;9698;51.976;7.570;2023-09-19T07:35:53;17.10;99.90
19132;DHT22;9698;51.976;7.570;2023-09-19T07:38:22;17.00;99.90
19132;DHT22;9698;51.976;7.570;2023-09-19T07:40:50;17.00;99.90
19132;DHT22;9698;51.976;7.570;2023-09-19T07:43:18;17.00;99.90
19132;DHT22;9698;51.976;7.570;2023-09-19T07:45:46;17.10;99.90
19132;DHT22;9698;51.976;7.570;2023-09-19T07:48:14;17.10;99.90
19132;DHT22;9698;51.976;7.570;2023-09-19T07:50:43;17.00;99.90
19132;DHT22;9698;51.976;7.570;2023-09-19T07:53:12;17.00;99.90
19132;DHT22;9698;51.976;7.570;2023-09-19T07:55:40;16.30;99.90
19132;DHT22;9698;51.976;7.570;2023-09-19T07:58:08;17.00;99.90
19132;DHT22;9698;51.976;7.570;2023-09-19T08:03:23;17.00;99.90
19132;DHT22;9698;51.976;7.570;2023-09-19T08:05:51;17.00;99.90
19132;DHT22;9698;51.976;7.570;2023-09-19T08:08:19;17.00;99.90
19132;DHT22;9698;51.976;7.570;2023-09-19T08:10:54;17.10;99.90
19132;DHT22;9698;51.976;7.570;2023-09-19T08:13:23;17.10;99.90
19132;DHT22;9698;51.976;7.570;2023-09-19T08:15:51;17.00;99.90
19132;DHT22;9698;51.976;7.570;2023-09-19T08:18:20;17.00;99.90
19132;DHT22;9698;51.976;7.570;2023-09-19T08:20:53;17.00;99.90
19132;DHT22;9698;51.976;7.570;2023-09-19T08:23:21;17.10;99.90
19132;DHT22;9698;51.976;7.570;2023-09-19T08:25:49;17.10;99.90
19132;DHT22;9698;51.976;7.570;2023-09-19T08:28:17;17.10;99.90
19132;DHT22;9698;51.976;7.570;2023-09-19T08:30:46;17.00;99.90
19132;DHT22;9698;51.976;7.570;2023-09-19T08:33:14;17.10;99.90
19132;DHT22;9698;51.976;7.570;2023-09-19T08:35:43;17.20;99.90
19132;DHT22;9698;51.976;7.570;2023-09-19T08:38:12;17.10;99.90
19132;DHT22;9698;51.976;7.570;2023-09-19T08:40:41;17.20;99.90
19132;DHT22;9698;51.976;7.570;2023-09-19T08:43:11;17.30;99.90
19132;DHT22;9698;51.976;7.570;2023-09-19T08:45:40;17.30;99.90
19132;DHT22;9698;51.976;7.570;2023-09-19T08:48:25;17.30;99.90
19132;DHT22;9698;51.976;7.570;2023-09-19T08:50:59;17.30;99.90
19132;DHT22;9698;51.976;7.570;2023-09-19T08:53:35;17.30;99.90
19132;DHT22;9698;51.976;7.570;2023-09-19T08:56:11;17.30;99.90
19132;DHT22;9698;51.976;7.570;2023-09-19T08:58:46;17.40;99.90
19132;DHT22;9698;51.976;7.570;2023-09-19T09:01:16;17.40;99.90
19132;DHT22;9698;51.976;7.570;2023-09-19T09:03:53;17.40;99.90
19132;DHT22;9698;51.976;7.570;2023-09-19T09:06:22;17.40;99.90
19132;DHT22;9698;51.976;7.570;2023-09-19T09:08:52;17.40;99.90
19132;DHT22;9698;51.976;7.570;2023-09-19T09:14:09;17.50;99.90
19132;DHT22;9698;51.976;7.570;2023-09-19T09:16:38;17.60;99.90
19132;DHT22;9698;51.976;7.570;2023-09-19T09:19:07;17.70;99.90
19132;DHT22;9698;51.976;7.570;2023-09-19T09:21:35;17.70;99.90
19132;DHT22;9698;51.976;7.570;2023-09-19T09:24:28;17.80;99.90
19132;DHT22;9698;51.976;7.570;2023-09-19T09:27:03;17.80;99.90
19132;DHT22;9698;51.976;7.570;2023-09-19T09:29:43;19.00;99.90
19132;DHT22;9698;51.976;7.570;2023-09-19T09:32:22;17.90;99.90
19132;DHT22;9698;51.976;7.570;2023-09-19T09:34:53;17.90;99.90
19132;DHT22;9698;51.976;7.570;2023-09-19T09:37:25;17.90;99.90
19132;DHT22;9698;51.976;7.570;2023-09-19T09:39:56;17.90;99.90
19132;DHT22;9698;51.976;7.570;2023-09-19T09:45:20;17.90;99.90
19132;DHT22;9698;51.976;7.570;2023-09-19T09:47:56;17.90;99.90
19132;DHT22;9698;51.976;7.570;2023-09-19T09:50:28;17.90;99.90
19132;DHT22;9698;51.976;7.570;2023-09-19T09:53:04;17.90;99.90
19132;DHT22;9698;51.976;7.570;2023-09-19T09:55:57;17.90;99.90
19132;DHT22;9698;51.976;7.570;2023-09-19T09:58:27;17.90;99.90
19132;DHT22;9698;51.976;7.570;2023-09-19T10:00:57;17.90;99.90
19132;DHT22;9698;51.976;7.570;2023-09-19T10:03:33;17.90;99.90
19132;DHT22;9698;51.976;7.570;2023-09-19T10:06:13;18.00;99.90
19132;DHT22;9698;51.976;7.570;2023-09-19T10:09:01;18.00;99.90
19132;DHT22;9698;51.976;7.570;2023-09-19T10:11:35;17.90;99.90
19132;DHT22;9698;51.976;7.570;2023-09-19T10:14:05;17.90;99.90
19132;DHT22;9698;51.976;7.570;2023-09-19T10:16:40;17.90;99.90
19132;DHT22;9698;51.976;7.570;2023-09-19T10:19:09;17.90;99.90
19132;DHT22;9698;51.976;7.570;2023-09-19T10:21:38;17.80;99.90
19132;DHT22;9698;51.976;7.570;2023-09-19T10:24:09;17.80;99.90
19132;DHT22;9698;51.976;7.570;2023-09-19T10:26:37;17.90;99.50
19132;DHT22;9698;51.976;7.570;2023-09-19T10:29:08;17.90;99.90
19132;DHT22;9698;51.976;7.570;2023-09-19T10:31:39;17.90;98.50
19132;DHT22;9698;51.976;7.570;2023-09-19T10:34:10;17.90;99.90
19132;DHT22;9698;51.976;7.570;2023-09-19T10:39:26;17.90;95.90
19132;DHT22;9698;51.976;7.570;2023-09-19T10:42:02;17.80;86.00
19132;DHT22;9698;51.976;7.570;2023-09-19T10:44:33;17.90;95.80
19132;DHT22;9698;51.976;7.570;2023-09-19T10:47:06;18.10;27.40
19132;DHT22;9698;51.976;7.570;2023-09-19T10:49:35;18.20;1.00
19132;DHT22;9698;51.976;7.570;2023-09-19T10:52:06;18.30;1.00
19132;DHT22;9698;51.976;7.570;2023-09-19T10:54:38;18.40;1.00
19132;DHT22;9698;51.976;7.570;2023-09-19T10:57:09;18.40;1.00
19132;DHT22;9698;51.976;7.570;2023-09-19T11:00:01;18.50;1.00
19132;DHT22;9698;51.976;7.570;2023-09-19T11:02:30;18.60;1.00
19132;DHT22;9698;51.976;7.570;2023-09-19T11:05:12;18.60;1.00
19132;DHT22;9698;51.976;7.570;2023-09-19T11:07:58;18.70;1.00
19132;DHT22;9698;51.976;7.570;2023-09-19T11:10:46;18.80;1.00
19132;DHT22;9698;51.976;7.570;2023-09-19T11:16:22;18.90;1.00
19132;DHT22;9698;51.976;7.570;2023-09-19T11:18:54;18.90;1.00
19132;DHT22;9698;51.976;7.570;2023-09-19T11:21:54;18.90;1.00
19132;DHT22;9698;51.976;7.570;2023-09-19T11:24:31;19.00;1.00
19132;DHT22;9698;51.976;7.570;2023-09-19T11:27:17;19.10;1.00
19132;DHT22;9698;51.976;7.570;2023-09-19T11:29:46;19.20;1.00
19132;DHT22;9698;51.976;7.570;2023-09-19T11:32:15;19.30;1.00
19132;DHT22;9698;51.976;7.570;2023-09-19T11:34:49;19.40;1.00
19132;DHT22;9698;51.976;7.570;2023-09-19T11:40:56;19.70;1.00
19132;DHT22;9698;51.976;7.570;2023-09-19T11:47:24;19.90;1.00
19132;DHT22;9698;51.976;7.570;2023-09-19T11:49:55;19.90;1.00
19132;DHT22;9698;51.976;7.570;2023-09-19T11:52:25;19.70;1.00
19132;DHT22;9698;51.976;7.570;2023-09-19T11:54:56;19.80;1.00
19132;DHT22;9698;51.976;7.570;2023-09-19T11:57:28;19.80;1.00
19132;DHT22;9698;51.976;7.570;2023-09-19T12:00:05;19.80;1.00
19132;DHT22;9698;51.976;7.570;2023-09-19T12:02:40;19.90;99.90
19132;DHT22;9698;51.976;7.570;2023-09-19T12:05:11;19.80;1.00
19132;DHT22;9698;51.976;7.570;2023-09-19T12:07:44;19.90;1.00
19132;DHT22;9698;51.976;7.570;2023-09-19T12:10:17;20.00;1.00
19132;DHT22;9698;51.976;7.570;2023-09-19T12:12:49;20.00;1.00
19132;DHT22;9698;51.976;7.570;2023-09-19T12:15:23;19.90;1.00
19132;DHT22;9698;51.976;7.570;2023-09-19T12:17:56;19.90;1.00
19132;DHT22;9698;51.976;7.570;2023-09-19T12:20:24;19.90;1.00
19132;DHT22;9698;51.976;7.570;2023-09-19T12:22:54;19.80;1.00
19132;DHT22;9698;51.976;7.570;2023-09-19T12:25:23;19.80;1.00
19132;DHT22;9698;51.976;7.570;2023-09-19T12:27:52;19.90;1.00
19132;DHT22;9698;51.976;7.570;2023-09-19T12:30:28;19.90;1.00
19132;DHT22;9698;51.976;7.570;2023-09-19T12:33:01;19.90;1.00
19132;DHT22;9698;51.976;7.570;2023-09-19T12:35:31;20.40;1.00
19132;DHT22;9698;51.976;7.570;2023-09-19T12:38:02;20.00;1.00
19132;DHT22;9698;51.976;7.570;2023-09-19T12:40:31;20.00;1.00
19132;DHT22;9698;51.976;7.570;2023-09-19T12:43:03;20.00;1.00
19132;DHT22;9698;51.976;7.570;2023-09-19T12:45:32;20.00;1.00
19132;DHT22;9698;51.976;7.570;2023-09-19T12:48:23;20.00;1.00
19132;DHT22;9698;51.976;7.570;2023-09-19T12:51:03;20.00;1.00
19132;DHT22;9698;51.976;7.570;2023-09-19T12:53:34;20.00;1.00
19132;DHT22;9698;51.976;7.570;2023-09-19T12:56:05;20.00;1.00
19132;DHT22;9698;51.976;7.570;2023-09-19T12:58:48;20.00;1.00
19132;DHT22;9698;51.976;7.570;2023-09-19T13:01:17;19.90;1.00
19132;DHT22;9698;51.976;7.570;2023-09-19T13:03:46;19.90;1.00
19132;DHT22;9698;51.976;7.570;2023-09-19T13:06:40;19.90;1.00
19132;DHT22;9698;51.976;7.570;2023-09-19T13:09:11;20.00;1.00
19132;DHT22;9698;51.976;7.570;2023-09-19T13:11:41;20.00;1.00
19132;DHT22;9698;51.976;7.570;2023-09-19T13:14:19;20.00;1.00
19132;DHT22;9698;51.976;7.570;2023-09-19T13:20:05;20.00;1.00
19132;DHT22;9698;51.976;7.570;2023-09-19T13:22:39;20.00;1.00
19132;DHT22;9698;51.976;7.570;2023-09-19T13:25:10;20.00;1.00
19132;DHT22;9698;51.976;7.570;2023-09-19T13:27:42;20.00;1.00
19132;DHT22;9698;51.976;7.570;2023-09-19T13:30:13;20.00;1.00
19132;DHT22;9698;51.976;7.570;2023-09-19T13:32:42;20.00;1.00
19132;DHT22;9698;51.976;7.570;2023-09-19T13:35:10;20.00;1.00
19132;DHT22;9698;51.976;7.570;2023-09-19T13:37:40;20.10;1.00
19132;DHT22;9698;51.976;7.570;2023-09-19T13:40:12;20.30;1.00
19132;DHT22;9698;51.976;7.570;2023-09-19T13:42:41;20.50;1.00
19132;DHT22;9698;51.976;7.570;2023-09-19T13:45:10;20.60;99.90
19132;DHT22;9698;51.976;7.570;2023-09-19T13:47:39;20.60;1.00
19132;DHT22;9698;51.976;7.570;2023-09-19T13:52:56;20.50;99.90
19132;DHT22;9698;51.976;7.570;2023-09-19T13:55:25;20.50;1.00
19132;DHT22;9698;51.976;7.570;2023-09-19T13:57:53;20.50;99.90
19132;DHT22;9698;51.976;7.570;2023-09-19T14:00:24;20.40;99.90
19132;DHT22;9698;51.976;7.570;2023-09-19T14:02:52;20.30;99.90
19132;DHT22;9698;51.976;7.570;2023-09-19T14:05:21;20.30;99.90
19132;DHT22;9698;51.976;7.570;2023-09-19T14:07:49;20.20;99.90
